sensor_id;sensor_type;location;lat;lon;timestamp;P1;durP1;ratioP1;P2;durP2;ratioP2
28343;SDS011;15597;50.914;6.638;2024-02-21T00:00:51;16.13;;;4.97;;
28343;SDS011;15597;50.914;6.638;2024-02-21T00:03:17;9.88;;;3.10;;
28343;SDS011;15597;50.914;6.638;2024-02-21T00:05:43;9.18;;;3.88;;
28343;SDS011;15597;50.914;6.638;2024-02-21T00:08:08;7.45;;;2.72;;
28343;SDS011;15597;50.914;6.638;2024-02-21T00:10:34;10.65;;;3.05;;
28343;SDS011;15597;50.914;6.638;2024-02-21T00:13:00;13.60;;;4.65;;
28343;SDS011;15597;50.914;6.638;2024-02-21T00:15:26;8.95;;;3.22;;
28343;SDS011;15597;50.914;6.638;2024-02-21T00:17:52;13.80;;;4.50;;
28343;SDS011;15597;50.914;6.638;2024-02-21T00:20:17;9.45;;;3.33;;
28343;SDS011;15597;50.914;6.638;2024-02-21T00:22:44;12.98;;;4.57;;
28343;SDS011;15597;50.914;6.638;2024-02-21T00:25:10;10.85;;;3.67;;
28343;SDS011;15597;50.914;6.638;2024-02-21T00:27:35;12.23;;;3.90;;
28343;SDS011;15597;50.914;6.638;2024-02-21T00:30:01;12.98;;;3.90;;
28343;SDS011;15597;50.914;6.638;2024-02-21T00:32:28;12.77;;;3.38;;
28343;SDS011;15597;50.914;6.638;2024-02-21T00:34:54;8.65;;;3.40;;
28343;SDS011;15597;50.914;6.638;2024-02-21T00:37:19;10.30;;;3.35;;
28343;SDS011;15597;50.914;6.638;2024-02-21T00:39:45;7.75;;;2.80;;
28343;SDS011;15597;50.914;6.638;2024-02-21T00:42:11;8.25;;;2.90;;
28343;SDS011;15597;50.914;6.638;2024-02-21T00:44:36;12.05;;;3.83;;
28343;SDS011;15597;50.914;6.638;2024-02-21T00:47:02;10.38;;;3.17;;
28343;SDS011;15597;50.914;6.638;2024-02-21T00:49:28;7.53;;;2.88;;
28343;SDS011;15597;50.914;6.638;2024-02-21T00:51:53;11.30;;;3.28;;
28343;SDS011;15597;50.914;6.638;2024-02-21T00:54:19;9.23;;;3.35;;
28343;SDS011;15597;50.914;6.638;2024-02-21T00:56:44;13.57;;;4.05;;
28343;SDS011;15597;50.914;6.638;2024-02-21T00:59:10;8.15;;;3.03;;
28343;SDS011;15597;50.914;6.638;2024-02-21T01:01:36;13.43;;;3.22;;
28343;SDS011;15597;50.914;6.638;2024-02-21T01:04:01;8.05;;;2.78;;
28343;SDS011;15597;50.914;6.638;2024-02-21T01:06:27;9.98;;;3.40;;
28343;SDS011;15597;50.914;6.638;2024-02-21T01:08:53;7.03;;;3.42;;
28343;SDS011;15597;50.914;6.638;2024-02-21T01:11:19;9.95;;;2.97;;
28343;SDS011;15597;50.914;6.638;2024-02-21T01:13:45;9.40;;;3.03;;
28343;SDS011;15597;50.914;6.638;2024-02-21T01:16:10;15.43;;;4.65;;
28343;SDS011;15597;50.914;6.638;2024-02-21T01:18:39;10.82;;;4.22;;
28343;SDS011;15597;50.914;6.638;2024-02-21T01:21:05;6.65;;;2.95;;
28343;SDS011;15597;50.914;6.638;2024-02-21T01:23:35;8.38;;;3.05;;
28343;SDS011;15597;50.914;6.638;2024-02-21T01:26:02;9.50;;;3.50;;
28343;SDS011;15597;50.914;6.638;2024-02-21T01:28:29;9.07;;;3.33;;
28343;SDS011;15597;50.914;6.638;2024-02-21T01:30:56;12.70;;;4.05;;
28343;SDS011;15597;50.914;6.638;2024-02-21T01:33:22;8.85;;;3.05;;
28343;SDS011;15597;50.914;6.638;2024-02-21T01:35:47;9.48;;;3.15;;
28343;SDS011;15597;50.914;6.638;2024-02-21T01:38:14;14.52;;;4.70;;
28343;SDS011;15597;50.914;6.638;2024-02-21T01:40:39;10.70;;;3.55;;
28343;SDS011;15597;50.914;6.638;2024-02-21T01:43:14;10.00;;;3.63;;
28343;SDS011;15597;50.914;6.638;2024-02-21T01:45:41;14.82;;;3.92;;
28343;SDS011;15597;50.914;6.638;2024-02-21T01:48:07;8.45;;;3.13;;
28343;SDS011;15597;50.914;6.638;2024-02-21T01:50:33;11.38;;;3.67;;
28343;SDS011;15597;50.914;6.638;2024-02-21T01:52:58;11.63;;;3.70;;
28343;SDS011;15597;50.914;6.638;2024-02-21T01:55:26;9.30;;;3.15;;
28343;SDS011;15597;50.914;6.638;2024-02-21T01:57:55;7.00;;;2.90;;
28343;SDS011;15597;50.914;6.638;2024-02-21T02:00:21;8.55;;;2.85;;
28343;SDS011;15597;50.914;6.638;2024-02-21T02:02:48;10.82;;;3.38;;
28343;SDS011;15597;50.914;6.638;2024-02-21T02:05:14;8.13;;;3.25;;
28343;SDS011;15597;50.914;6.638;2024-02-21T02:07:42;11.13;;;2.85;;
28343;SDS011;15597;50.914;6.638;2024-02-21T02:10:08;18.52;;;4.20;;
28343;SDS011;15597;50.914;6.638;2024-02-21T02:12:35;13.60;;;4.15;;
28343;SDS011;15597;50.914;6.638;2024-02-21T02:15:02;7.78;;;2.90;;
28343;SDS011;15597;50.914;6.638;2024-02-21T02:17:31;11.60;;;4.22;;
28343;SDS011;15597;50.914;6.638;2024-02-21T02:19:57;9.45;;;2.88;;
28343;SDS011;15597;50.914;6.638;2024-02-21T02:22:25;9.07;;;2.83;;
28343;SDS011;15597;50.914;6.638;2024-02-21T02:24:57;8.32;;;3.33;;
28343;SDS011;15597;50.914;6.638;2024-02-21T02:27:23;10.98;;;4.00;;
28343;SDS011;15597;50.914;6.638;2024-02-21T02:29:52;11.15;;;3.45;;
28343;SDS011;15597;50.914;6.638;2024-02-21T02:32:18;12.32;;;3.13;;
28343;SDS011;15597;50.914;6.638;2024-02-21T02:34:43;10.77;;;3.53;;
28343;SDS011;15597;50.914;6.638;2024-02-21T02:37:09;7.80;;;3.22;;
28343;SDS011;15597;50.914;6.638;2024-02-21T02:39:34;8.93;;;3.03;;
28343;SDS011;15597;50.914;6.638;2024-02-21T02:42:01;7.60;;;3.25;;
28343;SDS011;15597;50.914;6.638;2024-02-21T02:44:27;11.23;;;3.60;;
28343;SDS011;15597;50.914;6.638;2024-02-21T02:46:52;8.80;;;2.92;;
28343;SDS011;15597;50.914;6.638;2024-02-21T02:49:18;10.30;;;3.45;;
28343;SDS011;15597;50.914;6.638;2024-02-21T02:51:44;7.18;;;2.67;;
28343;SDS011;15597;50.914;6.638;2024-02-21T02:54:09;6.78;;;2.38;;
28343;SDS011;15597;50.914;6.638;2024-02-21T02:56:36;6.70;;;2.40;;
28343;SDS011;15597;50.914;6.638;2024-02-21T02:59:01;11.25;;;3.47;;
28343;SDS011;15597;50.914;6.638;2024-02-21T03:01:27;7.53;;;2.90;;
28343;SDS011;15597;50.914;6.638;2024-02-21T03:03:53;7.45;;;2.72;;
28343;SDS011;15597;50.914;6.638;2024-02-21T03:06:19;14.35;;;4.00;;
28343;SDS011;15597;50.914;6.638;2024-02-21T03:08:45;9.82;;;2.83;;
28343;SDS011;15597;50.914;6.638;2024-02-21T03:11:10;7.63;;;3.00;;
28343;SDS011;15597;50.914;6.638;2024-02-21T03:13:36;11.10;;;3.25;;
28343;SDS011;15597;50.914;6.638;2024-02-21T03:16:02;7.68;;;2.60;;
28343;SDS011;15597;50.914;6.638;2024-02-21T03:18:27;7.38;;;2.50;;
28343;SDS011;15597;50.914;6.638;2024-02-21T03:20:54;6.13;;;2.58;;
28343;SDS011;15597;50.914;6.638;2024-02-21T03:23:19;9.35;;;2.83;;
28343;SDS011;15597;50.914;6.638;2024-02-21T03:25:45;7.80;;;2.63;;
28343;SDS011;15597;50.914;6.638;2024-02-21T03:28:11;8.35;;;2.65;;
28343;SDS011;15597;50.914;6.638;2024-02-21T03:30:37;13.10;;;3.03;;
28343;SDS011;15597;50.914;6.638;2024-02-21T03:33:03;6.43;;;2.40;;
28343;SDS011;15597;50.914;6.638;2024-02-21T03:35:29;11.77;;;3.20;;
28343;SDS011;15597;50.914;6.638;2024-02-21T03:37:54;9.93;;;3.00;;
28343;SDS011;15597;50.914;6.638;2024-02-21T03:40:20;6.68;;;2.53;;
28343;SDS011;15597;50.914;6.638;2024-02-21T03:42:45;8.05;;;2.28;;
28343;SDS011;15597;50.914;6.638;2024-02-21T03:45:11;7.85;;;3.05;;
28343;SDS011;15597;50.914;6.638;2024-02-21T03:47:37;9.40;;;2.72;;
28343;SDS011;15597;50.914;6.638;2024-02-21T03:50:02;8.20;;;2.92;;
28343;SDS011;15597;50.914;6.638;2024-02-21T03:52:29;10.65;;;2.90;;
28343;SDS011;15597;50.914;6.638;2024-02-21T03:54:55;7.82;;;3.40;;
28343;SDS011;15597;50.914;6.638;2024-02-21T03:57:20;9.23;;;2.80;;
28343;SDS011;15597;50.914;6.638;2024-02-21T03:59:46;7.80;;;2.67;;
28343;SDS011;15597;50.914;6.638;2024-02-21T04:02:14;9.90;;;2.88;;
28343;SDS011;15597;50.914;6.638;2024-02-21T04:04:42;7.82;;;2.45;;
28343;SDS011;15597;50.914;6.638;2024-02-21T04:07:12;6.65;;;2.40;;
28343;SDS011;15597;50.914;6.638;2024-02-21T04:09:38;6.97;;;2.50;;
28343;SDS011;15597;50.914;6.638;2024-02-21T04:12:04;7.18;;;2.53;;
28343;SDS011;15597;50.914;6.638;2024-02-21T04:14:30;6.10;;;2.47;;
28343;SDS011;15597;50.914;6.638;2024-02-21T04:16:55;6.90;;;2.45;;
28343;SDS011;15597;50.914;6.638;2024-02-21T04:19:21;10.60;;;2.65;;
28343;SDS011;15597;50.914;6.638;2024-02-21T04:21:46;7.43;;;2.80;;
28343;SDS011;15597;50.914;6.638;2024-02-21T04:24:12;7.60;;;2.45;;
28343;SDS011;15597;50.914;6.638;2024-02-21T04:26:38;6.55;;;2.33;;
28343;SDS011;15597;50.914;6.638;2024-02-21T04:29:03;6.22;;;2.13;;
28343;SDS011;15597;50.914;6.638;2024-02-21T04:31:29;9.30;;;3.22;;
28343;SDS011;15597;50.914;6.638;2024-02-21T04:33:57;12.52;;;3.30;;
28343;SDS011;15597;50.914;6.638;2024-02-21T04:36:23;6.28;;;2.30;;
28343;SDS011;15597;50.914;6.638;2024-02-21T04:38:49;5.80;;;2.50;;
28343;SDS011;15597;50.914;6.638;2024-02-21T04:41:15;6.13;;;2.40;;
28343;SDS011;15597;50.914;6.638;2024-02-21T04:43:41;6.57;;;2.58;;
28343;SDS011;15597;50.914;6.638;2024-02-21T04:46:06;5.78;;;2.70;;
28343;SDS011;15597;50.914;6.638;2024-02-21T04:48:32;10.15;;;3.95;;
28343;SDS011;15597;50.914;6.638;2024-02-21T04:50:58;4.93;;;2.22;;
28343;SDS011;15597;50.914;6.638;2024-02-21T04:53:24;9.35;;;2.67;;
28343;SDS011;15597;50.914;6.638;2024-02-21T04:55:50;6.32;;;2.53;;
28343;SDS011;15597;50.914;6.638;2024-02-21T04:58:15;7.93;;;2.38;;
28343;SDS011;15597;50.914;6.638;2024-02-21T05:00:41;8.35;;;2.65;;
28343;SDS011;15597;50.914;6.638;2024-02-21T05:03:07;7.47;;;2.90;;
28343;SDS011;15597;50.914;6.638;2024-02-21T05:05:33;9.63;;;2.50;;
28343;SDS011;15597;50.914;6.638;2024-02-21T05:07:58;7.38;;;2.78;;
28343;SDS011;15597;50.914;6.638;2024-02-21T05:10:24;6.03;;;2.33;;
28343;SDS011;15597;50.914;6.638;2024-02-21T05:12:49;8.63;;;2.78;;
28343;SDS011;15597;50.914;6.638;2024-02-21T05:15:15;8.15;;;2.47;;
28343;SDS011;15597;50.914;6.638;2024-02-21T05:17:40;7.57;;;2.72;;
28343;SDS011;15597;50.914;6.638;2024-02-21T05:20:07;5.35;;;2.40;;
28343;SDS011;15597;50.914;6.638;2024-02-21T05:22:34;7.85;;;2.70;;
28343;SDS011;15597;50.914;6.638;2024-02-21T05:24:59;5.85;;;2.42;;
28343;SDS011;15597;50.914;6.638;2024-02-21T05:27:25;8.95;;;2.45;;
28343;SDS011;15597;50.914;6.638;2024-02-21T05:29:50;10.32;;;3.10;;
28343;SDS011;15597;50.914;6.638;2024-02-21T05:32:16;7.35;;;2.35;;
28343;SDS011;15597;50.914;6.638;2024-02-21T05:34:42;6.82;;;2.53;;
28343;SDS011;15597;50.914;6.638;2024-02-21T05:37:07;10.65;;;3.03;;
28343;SDS011;15597;50.914;6.638;2024-02-21T05:39:33;7.07;;;2.58;;
28343;SDS011;15597;50.914;6.638;2024-02-21T05:41:59;8.23;;;2.65;;
28343;SDS011;15597;50.914;6.638;2024-02-21T05:44:24;5.45;;;2.20;;
28343;SDS011;15597;50.914;6.638;2024-02-21T05:46:52;8.52;;;2.60;;
28343;SDS011;15597;50.914;6.638;2024-02-21T05:49:17;11.15;;;2.75;;
28343;SDS011;15597;50.914;6.638;2024-02-21T05:51:43;7.25;;;2.80;;
28343;SDS011;15597;50.914;6.638;2024-02-21T05:54:08;5.55;;;2.22;;
28343;SDS011;15597;50.914;6.638;2024-02-21T05:56:34;7.75;;;2.80;;
28343;SDS011;15597;50.914;6.638;2024-02-21T05:59:00;7.82;;;2.80;;
28343;SDS011;15597;50.914;6.638;2024-02-21T06:01:25;6.85;;;2.63;;
28343;SDS011;15597;50.914;6.638;2024-02-21T06:03:51;8.35;;;2.72;;
28343;SDS011;15597;50.914;6.638;2024-02-21T06:06:17;10.68;;;3.17;;
28343;SDS011;15597;50.914;6.638;2024-02-21T06:08:42;9.65;;;2.70;;
28343;SDS011;15597;50.914;6.638;2024-02-21T06:11:08;8.40;;;2.55;;
28343;SDS011;15597;50.914;6.638;2024-02-21T06:13:37;5.57;;;2.00;;
28343;SDS011;15597;50.914;6.638;2024-02-21T06:16:04;7.10;;;2.40;;
28343;SDS011;15597;50.914;6.638;2024-02-21T06:18:30;10.18;;;2.88;;
28343;SDS011;15597;50.914;6.638;2024-02-21T06:20:56;12.77;;;2.97;;
28343;SDS011;15597;50.914;6.638;2024-02-21T06:23:21;7.72;;;2.60;;
28343;SDS011;15597;50.914;6.638;2024-02-21T06:25:47;10.55;;;2.95;;
28343;SDS011;15597;50.914;6.638;2024-02-21T06:28:13;8.90;;;3.22;;
28343;SDS011;15597;50.914;6.638;2024-02-21T06:30:39;9.63;;;2.70;;
28343;SDS011;15597;50.914;6.638;2024-02-21T06:33:05;10.00;;;3.10;;
28343;SDS011;15597;50.914;6.638;2024-02-21T06:35:33;6.07;;;2.22;;
28343;SDS011;15597;50.914;6.638;2024-02-21T06:37:59;7.72;;;2.60;;
28343;SDS011;15597;50.914;6.638;2024-02-21T06:40:24;5.85;;;2.10;;
28343;SDS011;15597;50.914;6.638;2024-02-21T06:42:50;7.30;;;2.15;;
28343;SDS011;15597;50.914;6.638;2024-02-21T06:45:16;7.82;;;2.58;;
28343;SDS011;15597;50.914;6.638;2024-02-21T06:47:42;7.00;;;2.33;;
28343;SDS011;15597;50.914;6.638;2024-02-21T06:50:08;5.30;;;2.05;;
28343;SDS011;15597;50.914;6.638;2024-02-21T06:52:34;10.77;;;3.35;;
28343;SDS011;15597;50.914;6.638;2024-02-21T06:55:00;6.20;;;1.90;;
28343;SDS011;15597;50.914;6.638;2024-02-21T06:57:26;5.88;;;2.30;;
28343;SDS011;15597;50.914;6.638;2024-02-21T06:59:53;7.88;;;2.25;;
28343;SDS011;15597;50.914;6.638;2024-02-21T07:02:18;6.53;;;2.33;;
28343;SDS011;15597;50.914;6.638;2024-02-21T07:04:44;11.25;;;2.65;;
28343;SDS011;15597;50.914;6.638;2024-02-21T07:07:10;12.13;;;3.40;;
28343;SDS011;15597;50.914;6.638;2024-02-21T07:09:35;10.57;;;3.70;;
28343;SDS011;15597;50.914;6.638;2024-02-21T07:12:01;6.65;;;2.33;;
28343;SDS011;15597;50.914;6.638;2024-02-21T07:14:29;8.05;;;3.13;;
28343;SDS011;15597;50.914;6.638;2024-02-21T07:16:55;8.30;;;2.53;;
28343;SDS011;15597;50.914;6.638;2024-02-21T07:19:22;7.10;;;2.70;;
28343;SDS011;15597;50.914;6.638;2024-02-21T07:21:47;8.63;;;2.38;;
28343;SDS011;15597;50.914;6.638;2024-02-21T07:24:13;6.40;;;2.72;;
28343;SDS011;15597;50.914;6.638;2024-02-21T07:26:42;8.20;;;2.33;;
28343;SDS011;15597;50.914;6.638;2024-02-21T07:29:11;5.63;;;2.22;;
28343;SDS011;15597;50.914;6.638;2024-02-21T07:31:43;6.55;;;2.08;;
28343;SDS011;15597;50.914;6.638;2024-02-21T07:34:09;8.05;;;2.67;;
28343;SDS011;15597;50.914;6.638;2024-02-21T07:36:35;7.50;;;2.70;;
28343;SDS011;15597;50.914;6.638;2024-02-21T07:39:00;13.10;;;2.80;;
28343;SDS011;15597;50.914;6.638;2024-02-21T07:41:26;7.63;;;3.08;;
28343;SDS011;15597;50.914;6.638;2024-02-21T07:43:53;5.80;;;2.47;;
28343;SDS011;15597;50.914;6.638;2024-02-21T07:46:19;6.63;;;2.10;;
28343;SDS011;15597;50.914;6.638;2024-02-21T07:48:45;6.20;;;2.00;;
28343;SDS011;15597;50.914;6.638;2024-02-21T07:51:11;5.70;;;2.10;;
28343;SDS011;15597;50.914;6.638;2024-02-21T07:53:38;11.98;;;2.97;;
28343;SDS011;15597;50.914;6.638;2024-02-21T07:56:04;6.00;;;2.42;;
28343;SDS011;15597;50.914;6.638;2024-02-21T07:58:30;5.80;;;2.00;;
28343;SDS011;15597;50.914;6.638;2024-02-21T08:00:55;7.70;;;2.40;;
28343;SDS011;15597;50.914;6.638;2024-02-21T08:03:21;6.63;;;2.50;;
28343;SDS011;15597;50.914;6.638;2024-02-21T08:05:48;7.18;;;2.20;;
28343;SDS011;15597;50.914;6.638;2024-02-21T08:08:13;4.93;;;1.90;;
28343;SDS011;15597;50.914;6.638;2024-02-21T08:10:43;6.55;;;2.38;;
28343;SDS011;15597;50.914;6.638;2024-02-21T08:13:09;7.55;;;2.28;;
28343;SDS011;15597;50.914;6.638;2024-02-21T08:15:34;7.03;;;2.10;;
28343;SDS011;15597;50.914;6.638;2024-02-21T08:18:00;6.05;;;1.83;;
28343;SDS011;15597;50.914;6.638;2024-02-21T08:20:27;9.88;;;2.90;;
28343;SDS011;15597;50.914;6.638;2024-02-21T08:22:52;6.70;;;2.47;;
28343;SDS011;15597;50.914;6.638;2024-02-21T08:25:18;5.47;;;1.98;;
28343;SDS011;15597;50.914;6.638;2024-02-21T08:27:43;7.55;;;2.25;;
28343;SDS011;15597;50.914;6.638;2024-02-21T08:30:10;6.85;;;2.50;;
28343;SDS011;15597;50.914;6.638;2024-02-21T08:32:37;5.30;;;2.00;;
28343;SDS011;15597;50.914;6.638;2024-02-21T08:35:03;9.38;;;2.50;;
28343;SDS011;15597;50.914;6.638;2024-02-21T08:37:30;6.55;;;2.67;;
28343;SDS011;15597;50.914;6.638;2024-02-21T08:39:56;7.13;;;2.30;;
28343;SDS011;15597;50.914;6.638;2024-02-21T08:42:22;6.93;;;1.98;;
28343;SDS011;15597;50.914;6.638;2024-02-21T08:44:48;6.25;;;1.92;;
28343;SDS011;15597;50.914;6.638;2024-02-21T08:47:14;12.95;;;2.63;;
28343;SDS011;15597;50.914;6.638;2024-02-21T08:49:40;9.57;;;2.70;;
28343;SDS011;15597;50.914;6.638;2024-02-21T08:52:05;7.90;;;1.95;;
28343;SDS011;15597;50.914;6.638;2024-02-21T08:54:31;4.82;;;1.77;;
28343;SDS011;15597;50.914;6.638;2024-02-21T08:56:58;5.72;;;1.95;;
28343;SDS011;15597;50.914;6.638;2024-02-21T08:59:23;5.03;;;2.00;;
28343;SDS011;15597;50.914;6.638;2024-02-21T09:01:50;7.20;;;2.50;;
28343;SDS011;15597;50.914;6.638;2024-02-21T09:04:17;5.65;;;1.90;;
28343;SDS011;15597;50.914;6.638;2024-02-21T09:06:43;5.35;;;2.10;;
28343;SDS011;15597;50.914;6.638;2024-02-21T09:09:10;5.45;;;2.08;;
28343;SDS011;15597;50.914;6.638;2024-02-21T09:11:35;7.15;;;2.10;;
28343;SDS011;15597;50.914;6.638;2024-02-21T09:14:01;6.18;;;1.88;;
28343;SDS011;15597;50.914;6.638;2024-02-21T09:16:32;6.10;;;2.10;;
28343;SDS011;15597;50.914;6.638;2024-02-21T09:18:58;7.20;;;2.10;;
28343;SDS011;15597;50.914;6.638;2024-02-21T09:21:24;7.10;;;2.20;;
28343;SDS011;15597;50.914;6.638;2024-02-21T09:23:49;7.45;;;2.10;;
28343;SDS011;15597;50.914;6.638;2024-02-21T09:26:15;7.25;;;2.50;;
28343;SDS011;15597;50.914;6.638;2024-02-21T09:28:45;5.85;;;2.08;;
28343;SDS011;15597;50.914;6.638;2024-02-21T09:31:10;6.75;;;2.47;;
28343;SDS011;15597;50.914;6.638;2024-02-21T09:33:36;8.05;;;2.13;;
28343;SDS011;15597;50.914;6.638;2024-02-21T09:36:02;5.65;;;2.03;;
28343;SDS011;15597;50.914;6.638;2024-02-21T09:38:31;8.40;;;2.72;;
28343;SDS011;15597;50.914;6.638;2024-02-21T09:41:00;5.03;;;1.98;;
28343;SDS011;15597;50.914;6.638;2024-02-21T09:43:29;3.88;;;1.60;;
28343;SDS011;15597;50.914;6.638;2024-02-21T09:45:55;6.68;;;1.92;;
28343;SDS011;15597;50.914;6.638;2024-02-21T09:48:26;6.97;;;2.00;;
28343;SDS011;15597;50.914;6.638;2024-02-21T09:51:12;7.10;;;2.00;;
28343;SDS011;15597;50.914;6.638;2024-02-21T09:53:40;7.03;;;2.03;;
28343;SDS011;15597;50.914;6.638;2024-02-21T09:56:10;6.78;;;2.30;;
28343;SDS011;15597;50.914;6.638;2024-02-21T09:58:36;6.20;;;2.28;;
28343;SDS011;15597;50.914;6.638;2024-02-21T10:01:02;5.50;;;1.85;;
28343;SDS011;15597;50.914;6.638;2024-02-21T10:03:32;4.78;;;1.75;;
28343;SDS011;15597;50.914;6.638;2024-02-21T10:05:58;6.20;;;1.83;;
28343;SDS011;15597;50.914;6.638;2024-02-21T10:08:26;5.13;;;1.90;;
28343;SDS011;15597;50.914;6.638;2024-02-21T10:10:52;9.05;;;2.75;;
28343;SDS011;15597;50.914;6.638;2024-02-21T10:13:27;5.97;;;2.00;;
28343;SDS011;15597;50.914;6.638;2024-02-21T10:16:06;5.18;;;2.00;;
28343;SDS011;15597;50.914;6.638;2024-02-21T10:18:33;4.47;;;1.60;;
28343;SDS011;15597;50.914;6.638;2024-02-21T10:21:06;6.85;;;1.80;;
28343;SDS011;15597;50.914;6.638;2024-02-21T10:23:42;5.93;;;2.05;;
28343;SDS011;15597;50.914;6.638;2024-02-21T10:26:08;5.35;;;2.00;;
28343;SDS011;15597;50.914;6.638;2024-02-21T10:28:34;4.63;;;2.03;;
28343;SDS011;15597;50.914;6.638;2024-02-21T10:30:59;7.35;;;1.85;;
28343;SDS011;15597;50.914;6.638;2024-02-21T10:33:25;5.05;;;1.80;;
28343;SDS011;15597;50.914;6.638;2024-02-21T10:35:53;5.85;;;1.80;;
28343;SDS011;15597;50.914;6.638;2024-02-21T10:38:19;6.18;;;2.20;;
28343;SDS011;15597;50.914;6.638;2024-02-21T10:40:44;6.50;;;1.92;;
28343;SDS011;15597;50.914;6.638;2024-02-21T10:43:12;6.32;;;2.00;;
28343;SDS011;15597;50.914;6.638;2024-02-21T10:45:39;4.03;;;1.73;;
28343;SDS011;15597;50.914;6.638;2024-02-21T10:48:10;5.38;;;1.83;;
28343;SDS011;15597;50.914;6.638;2024-02-21T10:51:01;4.30;;;1.75;;
28343;SDS011;15597;50.914;6.638;2024-02-21T10:56:45;6.88;;;2.00;;
28343;SDS011;15597;50.914;6.638;2024-02-21T10:59:15;8.32;;;2.20;;
28343;SDS011;15597;50.914;6.638;2024-02-21T11:01:42;5.75;;;1.98;;
28343;SDS011;15597;50.914;6.638;2024-02-21T11:04:08;5.95;;;1.83;;
28343;SDS011;15597;50.914;6.638;2024-02-21T11:06:36;11.73;;;2.72;;
28343;SDS011;15597;50.914;6.638;2024-02-21T11:09:04;6.07;;;1.83;;
28343;SDS011;15597;50.914;6.638;2024-02-21T11:11:34;7.78;;;2.15;;
28343;SDS011;15597;50.914;6.638;2024-02-21T11:14:04;5.72;;;2.05;;
28343;SDS011;15597;50.914;6.638;2024-02-21T11:16:50;5.43;;;2.13;;
28343;SDS011;15597;50.914;6.638;2024-02-21T11:19:19;6.45;;;2.10;;
28343;SDS011;15597;50.914;6.638;2024-02-21T11:21:49;6.18;;;1.52;;
28343;SDS011;15597;50.914;6.638;2024-02-21T11:27:13;5.95;;;2.20;;
28343;SDS011;15597;50.914;6.638;2024-02-21T11:32:16;5.50;;;1.77;;
28343;SDS011;15597;50.914;6.638;2024-02-21T11:34:56;5.82;;;1.80;;
28343;SDS011;15597;50.914;6.638;2024-02-21T11:37:27;4.95;;;2.08;;
28343;SDS011;15597;50.914;6.638;2024-02-21T11:39:57;5.43;;;2.10;;
28343;SDS011;15597;50.914;6.638;2024-02-21T11:42:24;4.88;;;2.00;;
28343;SDS011;15597;50.914;6.638;2024-02-21T11:44:50;8.10;;;2.17;;
28343;SDS011;15597;50.914;6.638;2024-02-21T11:47:16;7.63;;;1.85;;
28343;SDS011;15597;50.914;6.638;2024-02-21T11:49:43;6.03;;;2.10;;
28343;SDS011;15597;50.914;6.638;2024-02-21T11:52:11;7.38;;;2.15;;
28343;SDS011;15597;50.914;6.638;2024-02-21T11:54:40;5.53;;;2.17;;
28343;SDS011;15597;50.914;6.638;2024-02-21T11:57:06;6.55;;;1.85;;
28343;SDS011;15597;50.914;6.638;2024-02-21T11:59:32;6.57;;;2.00;;
28343;SDS011;15597;50.914;6.638;2024-02-21T12:01:59;6.65;;;1.95;;
28343;SDS011;15597;50.914;6.638;2024-02-21T12:04:25;4.72;;;1.95;;
28343;SDS011;15597;50.914;6.638;2024-02-21T12:06:52;5.43;;;1.90;;
28343;SDS011;15597;50.914;6.638;2024-02-21T12:09:19;8.50;;;1.80;;
28343;SDS011;15597;50.914;6.638;2024-02-21T12:11:45;7.78;;;2.35;;
28343;SDS011;15597;50.914;6.638;2024-02-21T12:14:15;7.53;;;1.80;;
28343;SDS011;15597;50.914;6.638;2024-02-21T12:16:42;5.85;;;1.70;;
28343;SDS011;15597;50.914;6.638;2024-02-21T12:19:12;6.03;;;1.77;;
28343;SDS011;15597;50.914;6.638;2024-02-21T12:21:38;5.95;;;2.08;;
28343;SDS011;15597;50.914;6.638;2024-02-21T12:24:14;6.57;;;1.88;;
28343;SDS011;15597;50.914;6.638;2024-02-21T12:26:50;6.63;;;1.92;;
28343;SDS011;15597;50.914;6.638;2024-02-21T12:29:19;8.20;;;2.10;;
28343;SDS011;15597;50.914;6.638;2024-02-21T12:31:45;6.43;;;1.92;;
28343;SDS011;15597;50.914;6.638;2024-02-21T12:34:11;7.32;;;2.15;;
28343;SDS011;15597;50.914;6.638;2024-02-21T12:36:43;6.72;;;2.33;;
28343;SDS011;15597;50.914;6.638;2024-02-21T12:39:10;5.35;;;2.05;;
28343;SDS011;15597;50.914;6.638;2024-02-21T12:41:36;5.53;;;1.92;;
28343;SDS011;15597;50.914;6.638;2024-02-21T12:44:08;6.20;;;2.03;;
28343;SDS011;15597;50.914;6.638;2024-02-21T12:46:34;6.53;;;2.50;;
28343;SDS011;15597;50.914;6.638;2024-02-21T12:49:01;6.90;;;1.90;;
28343;SDS011;15597;50.914;6.638;2024-02-21T12:51:26;6.63;;;2.35;;
28343;SDS011;15597;50.914;6.638;2024-02-21T12:53:52;9.23;;;2.10;;
28343;SDS011;15597;50.914;6.638;2024-02-21T12:56:18;5.97;;;2.20;;
28343;SDS011;15597;50.914;6.638;2024-02-21T12:58:43;7.57;;;2.03;;
28343;SDS011;15597;50.914;6.638;2024-02-21T13:01:10;3.80;;;1.58;;
28343;SDS011;15597;50.914;6.638;2024-02-21T13:03:35;4.95;;;1.52;;
28343;SDS011;15597;50.914;6.638;2024-02-21T13:06:01;4.82;;;1.85;;
28343;SDS011;15597;50.914;6.638;2024-02-21T13:08:26;5.65;;;2.00;;
28343;SDS011;15597;50.914;6.638;2024-02-21T13:10:52;6.85;;;2.63;;
28343;SDS011;15597;50.914;6.638;2024-02-21T13:13:18;7.57;;;2.20;;
28343;SDS011;15597;50.914;6.638;2024-02-21T13:15:44;5.60;;;1.90;;
28343;SDS011;15597;50.914;6.638;2024-02-21T13:18:10;8.65;;;2.70;;
28343;SDS011;15597;50.914;6.638;2024-02-21T13:20:36;6.38;;;2.20;;
28343;SDS011;15597;50.914;6.638;2024-02-21T13:23:02;4.25;;;1.80;;
28343;SDS011;15597;50.914;6.638;2024-02-21T13:25:28;5.97;;;1.90;;
28343;SDS011;15597;50.914;6.638;2024-02-21T13:27:55;6.30;;;2.17;;
28343;SDS011;15597;50.914;6.638;2024-02-21T13:30:23;7.07;;;2.05;;
28343;SDS011;15597;50.914;6.638;2024-02-21T13:32:51;5.88;;;2.10;;
28343;SDS011;15597;50.914;6.638;2024-02-21T13:35:17;6.85;;;2.08;;
28343;SDS011;15597;50.914;6.638;2024-02-21T13:37:43;6.32;;;1.73;;
28343;SDS011;15597;50.914;6.638;2024-02-21T13:40:09;5.70;;;2.10;;
28343;SDS011;15597;50.914;6.638;2024-02-21T13:42:35;6.00;;;1.77;;
28343;SDS011;15597;50.914;6.638;2024-02-21T13:45:02;5.90;;;1.70;;
28343;SDS011;15597;50.914;6.638;2024-02-21T13:49:56;4.43;;;1.90;;
28343;SDS011;15597;50.914;6.638;2024-02-21T13:52:22;5.78;;;1.60;;
28343;SDS011;15597;50.914;6.638;2024-02-21T13:54:48;5.60;;;2.13;;
28343;SDS011;15597;50.914;6.638;2024-02-21T13:57:13;7.80;;;2.35;;
28343;SDS011;15597;50.914;6.638;2024-02-21T13:59:40;7.38;;;2.35;;
28343;SDS011;15597;50.914;6.638;2024-02-21T14:02:07;5.45;;;1.65;;
28343;SDS011;15597;50.914;6.638;2024-02-21T14:04:33;6.82;;;2.05;;
28343;SDS011;15597;50.914;6.638;2024-02-21T14:06:59;5.97;;;2.20;;
28343;SDS011;15597;50.914;6.638;2024-02-21T14:09:26;6.22;;;1.77;;
28343;SDS011;15597;50.914;6.638;2024-02-21T14:11:51;7.10;;;2.17;;
28343;SDS011;15597;50.914;6.638;2024-02-21T14:14:17;5.65;;;1.90;;
28343;SDS011;15597;50.914;6.638;2024-02-21T14:16:43;7.00;;;1.90;;
28343;SDS011;15597;50.914;6.638;2024-02-21T14:19:09;7.03;;;2.10;;
28343;SDS011;15597;50.914;6.638;2024-02-21T14:21:36;6.13;;;1.90;;
28343;SDS011;15597;50.914;6.638;2024-02-21T14:24:03;5.18;;;1.90;;
28343;SDS011;15597;50.914;6.638;2024-02-21T14:26:32;9.05;;;1.90;;
28343;SDS011;15597;50.914;6.638;2024-02-21T14:28:58;7.50;;;2.72;;
28343;SDS011;15597;50.914;6.638;2024-02-21T14:31:24;5.78;;;1.75;;
28343;SDS011;15597;50.914;6.638;2024-02-21T14:33:50;9.23;;;2.45;;
28343;SDS011;15597;50.914;6.638;2024-02-21T14:36:16;9.43;;;2.28;;
28343;SDS011;15597;50.914;6.638;2024-02-21T14:38:42;8.10;;;2.05;;
28343;SDS011;15597;50.914;6.638;2024-02-21T14:41:10;5.55;;;2.10;;
28343;SDS011;15597;50.914;6.638;2024-02-21T14:43:39;6.75;;;1.73;;
28343;SDS011;15597;50.914;6.638;2024-02-21T14:46:05;3.83;;;1.63;;
28343;SDS011;15597;50.914;6.638;2024-02-21T14:48:31;4.90;;;1.50;;
28343;SDS011;15597;50.914;6.638;2024-02-21T14:50:58;5.18;;;1.83;;
28343;SDS011;15597;50.914;6.638;2024-02-21T14:53:24;6.20;;;1.65;;